East Earl, PA (17519)

2:15 PM EDT on August 24, 2016 (GMT -0400)
Fivepointville Rd. | | Change Station

Elev 404 ft 40.18 °N, 76.05 °W | Updated 8 seconds ago

Partly Cloudy
Partly Cloudy
85.3 °F
Feels Like 89 °F
N
3.0
Wind Variable Wind from WSW

Today
High -- | Low -- °F
--% Chance of Precip.
Yesterday
High -- | Low -- °F
Precip. -- in
Pressure 30.28 in
Visibility 10.0 miles
Clouds Few 4200 ft
Heat Index 89 °F
Dew Point 68 °F
Humidity 58%
Rainfall 0.00 in
Snow Depth Not available.
6:24 AM 7:47 PM
Waning Gibbous, 55% visible
METAR KMQS 241755Z AUTO 17006KT 10SM FEW042 27/17 A3028 RMK AO2
Pressure 30.28 in
Visibility 10.0 miles
Clouds Few 4200 ft
Heat Index 89 °F
Dew Point 68 °F
Humidity 58%
Rainfall 0.00 in
Snow Depth Not available.
6:24 AM 7:47 PM
Waning Gibbous, 55% visible
METAR KMQS 241755Z AUTO 17006KT 10SM FEW042 27/17 A3028 RMK AO2

10-Day Weather Forecast

Almanac

Astronomy

Aug. 24, 2016 Rise Set
Actual Time
Civil Twilight
Nautical Twilight
Astronomical Twilight
Moon
Length of Visible Light
Length of Day
Tomorrow will be .
, % of the Moon is Illuminated

Today's Extremes

State Highs State Lows

Community

WunderPhotos

Upload Photos

1,934,664 photos uploaded!

WunderBlog® & News

Nearby

Air Quality

  Air Quality AQ Index Pollutant
Not available.

Snow Depth

Station Depth Elevation

Earthquake Activity

City Distance Mag. Time & Date
Minimum magnitude displayed is 2.5.

Coastal Water Temperatures

Place Temperature

Stations

Nearby Weather Stations

Station Location Temp. Windchill Dew Point Humidity Wind Precip. Elev Updated Type
                   

Watches & Warnings

There are currently no watches in effect.